sensor_id;sensor_type;location;lat;lon;timestamp;temperature;humidity
50013;DHT22;35901;48.694;9.476;2023-07-29T00:01:42;14.30;99.90
50013;DHT22;35901;48.694;9.476;2023-07-29T00:04:08;14.30;99.90
50013;DHT22;35901;48.694;9.476;2023-07-29T00:06:35;14.30;99.90
50013;DHT22;35901;48.694;9.476;2023-07-29T00:09:02;14.30;99.90
50013;DHT22;35901;48.694;9.476;2023-07-29T00:11:27;14.30;99.90
50013;DHT22;35901;48.694;9.476;2023-07-29T00:13:53;14.20;99.90
50013;DHT22;35901;48.694;9.476;2023-07-29T00:16:19;14.20;99.90
50013;DHT22;35901;48.694;9.476;2023-07-29T00:18:48;14.30;99.90
50013;DHT22;35901;48.694;9.476;2023-07-29T00:21:13;14.10;99.90
50013;DHT22;35901;48.694;9.476;2023-07-29T00:23:39;14.10;99.90
50013;DHT22;35901;48.694;9.476;2023-07-29T00:26:05;14.00;99.90
50013;DHT22;35901;48.694;9.476;2023-07-29T00:28:30;14.10;99.90
50013;DHT22;35901;48.694;9.476;2023-07-29T00:30:56;14.20;99.90
50013;DHT22;35901;48.694;9.476;2023-07-29T00:33:22;14.30;99.90
50013;DHT22;35901;48.694;9.476;2023-07-29T00:35:47;14.30;99.90
50013;DHT22;35901;48.694;9.476;2023-07-29T00:38:13;14.30;99.90
50013;DHT22;35901;48.694;9.476;2023-07-29T00:40:39;14.30;99.90
50013;DHT22;35901;48.694;9.476;2023-07-29T00:43:05;14.30;99.90
50013;DHT22;35901;48.694;9.476;2023-07-29T00:45:32;14.40;99.90
50013;DHT22;35901;48.694;9.476;2023-07-29T00:47:58;14.40;99.90
50013;DHT22;35901;48.694;9.476;2023-07-29T00:50:24;14.40;99.90
50013;DHT22;35901;48.694;9.476;2023-07-29T00:52:51;14.40;99.90
50013;DHT22;35901;48.694;9.476;2023-07-29T00:55:16;14.50;99.90
50013;DHT22;35901;48.694;9.476;2023-07-29T00:57:42;14.50;99.90
50013;DHT22;35901;48.694;9.476;2023-07-29T01:00:14;14.40;99.90
50013;DHT22;35901;48.694;9.476;2023-07-29T01:02:41;14.40;99.90
50013;DHT22;35901;48.694;9.476;2023-07-29T01:05:07;14.40;99.90
50013;DHT22;35901;48.694;9.476;2023-07-29T01:07:52;14.40;99.90
50013;DHT22;35901;48.694;9.476;2023-07-29T01:10:40;14.40;99.90
50013;DHT22;35901;48.694;9.476;2023-07-29T01:16:15;14.50;99.90
50013;DHT22;35901;48.694;9.476;2023-07-29T01:18:44;14.50;99.90
50013;DHT22;35901;48.694;9.476;2023-07-29T01:21:12;14.50;99.90
50013;DHT22;35901;48.694;9.476;2023-07-29T01:23:39;14.50;99.90
50013;DHT22;35901;48.694;9.476;2023-07-29T01:26:04;14.40;99.90
50013;DHT22;35901;48.694;9.476;2023-07-29T01:28:30;14.40;99.90
50013;DHT22;35901;48.694;9.476;2023-07-29T01:31:10;14.30;99.90
50013;DHT22;35901;48.694;9.476;2023-07-29T01:33:53;14.30;99.90
50013;DHT22;35901;48.694;9.476;2023-07-29T01:36:23;14.40;99.90
50013;DHT22;35901;48.694;9.476;2023-07-29T01:38:52;14.40;99.90
50013;DHT22;35901;48.694;9.476;2023-07-29T01:41:20;14.40;99.90
50013;DHT22;35901;48.694;9.476;2023-07-29T01:43:47;14.50;99.90
50013;DHT22;35901;48.694;9.476;2023-07-29T01:46:13;14.50;99.90
50013;DHT22;35901;48.694;9.476;2023-07-29T01:48:40;14.50;99.90
50013;DHT22;35901;48.694;9.476;2023-07-29T01:51:06;14.50;99.90
50013;DHT22;35901;48.694;9.476;2023-07-29T01:53:32;14.50;99.90
50013;DHT22;35901;48.694;9.476;2023-07-29T01:55:58;14.60;99.90
50013;DHT22;35901;48.694;9.476;2023-07-29T01:58:24;14.60;99.90
50013;DHT22;35901;48.694;9.476;2023-07-29T02:00:50;14.70;99.90
50013;DHT22;35901;48.694;9.476;2023-07-29T02:03:16;14.70;99.90
50013;DHT22;35901;48.694;9.476;2023-07-29T02:05:42;14.80;99.90
50013;DHT22;35901;48.694;9.476;2023-07-29T02:08:10;14.80;99.90
50013;DHT22;35901;48.694;9.476;2023-07-29T02:10:36;14.90;99.90
50013;DHT22;35901;48.694;9.476;2023-07-29T02:13:03;14.90;99.90
50013;DHT22;35901;48.694;9.476;2023-07-29T02:15:29;14.90;99.90
50013;DHT22;35901;48.694;9.476;2023-07-29T02:17:55;14.90;99.90
50013;DHT22;35901;48.694;9.476;2023-07-29T02:20:21;14.90;99.90
50013;DHT22;35901;48.694;9.476;2023-07-29T02:22:47;14.90;99.90
50013;DHT22;35901;48.694;9.476;2023-07-29T02:25:14;14.80;99.90
50013;DHT22;35901;48.694;9.476;2023-07-29T02:27:40;14.80;99.90
50013;DHT22;35901;48.694;9.476;2023-07-29T02:30:06;14.80;99.90
50013;DHT22;35901;48.694;9.476;2023-07-29T02:32:32;14.70;99.90
50013;DHT22;35901;48.694;9.476;2023-07-29T02:34:58;14.70;99.90
50013;DHT22;35901;48.694;9.476;2023-07-29T02:37:24;14.70;99.90
50013;DHT22;35901;48.694;9.476;2023-07-29T02:39:49;14.70;99.90
50013;DHT22;35901;48.694;9.476;2023-07-29T02:42:15;14.70;99.90
50013;DHT22;35901;48.694;9.476;2023-07-29T02:44:40;14.60;99.90
50013;DHT22;35901;48.694;9.476;2023-07-29T02:47:07;14.60;99.90
50013;DHT22;35901;48.694;9.476;2023-07-29T02:49:32;14.60;99.90
50013;DHT22;35901;48.694;9.476;2023-07-29T02:51:58;14.60;99.90
50013;DHT22;35901;48.694;9.476;2023-07-29T02:54:23;14.60;99.90
50013;DHT22;35901;48.694;9.476;2023-07-29T02:56:50;14.60;99.90
50013;DHT22;35901;48.694;9.476;2023-07-29T02:59:16;14.60;99.90
50013;DHT22;35901;48.694;9.476;2023-07-29T03:01:44;14.70;99.90
50013;DHT22;35901;48.694;9.476;2023-07-29T03:04:10;14.60;99.90
50013;DHT22;35901;48.694;9.476;2023-07-29T03:06:38;14.60;99.90
50013;DHT22;35901;48.694;9.476;2023-07-29T03:09:04;14.60;99.90
50013;DHT22;35901;48.694;9.476;2023-07-29T03:11:30;14.60;99.90
50013;DHT22;35901;48.694;9.476;2023-07-29T03:13:56;14.60;99.90
50013;DHT22;35901;48.694;9.476;2023-07-29T03:16:22;14.60;99.90
50013;DHT22;35901;48.694;9.476;2023-07-29T03:18:53;14.60;99.90
50013;DHT22;35901;48.694;9.476;2023-07-29T03:21:18;14.60;99.90
50013;DHT22;35901;48.694;9.476;2023-07-29T03:23:44;14.60;99.90
50013;DHT22;35901;48.694;9.476;2023-07-29T03:26:10;14.60;99.90
50013;DHT22;35901;48.694;9.476;2023-07-29T03:28:38;14.70;99.90
50013;DHT22;35901;48.694;9.476;2023-07-29T03:31:04;14.70;99.90
50013;DHT22;35901;48.694;9.476;2023-07-29T03:33:29;14.60;99.90
50013;DHT22;35901;48.694;9.476;2023-07-29T03:35:55;14.50;99.90
50013;DHT22;35901;48.694;9.476;2023-07-29T03:38:21;14.50;99.90
50013;DHT22;35901;48.694;9.476;2023-07-29T03:40:47;14.50;99.90
50013;DHT22;35901;48.694;9.476;2023-07-29T03:43:13;14.50;99.90
50013;DHT22;35901;48.694;9.476;2023-07-29T03:45:41;14.50;99.90
50013;DHT22;35901;48.694;9.476;2023-07-29T03:48:07;14.50;99.90
50013;DHT22;35901;48.694;9.476;2023-07-29T03:50:34;14.50;99.90
50013;DHT22;35901;48.694;9.476;2023-07-29T03:53:03;14.50;99.90
50013;DHT22;35901;48.694;9.476;2023-07-29T03:55:30;14.50;99.90
50013;DHT22;35901;48.694;9.476;2023-07-29T03:58:00;14.60;99.90
50013;DHT22;35901;48.694;9.476;2023-07-29T04:00:26;14.60;99.90
50013;DHT22;35901;48.694;9.476;2023-07-29T04:02:52;14.60;99.90
50013;DHT22;35901;48.694;9.476;2023-07-29T04:05:18;14.70;99.90
50013;DHT22;35901;48.694;9.476;2023-07-29T04:07:44;14.80;99.90
50013;DHT22;35901;48.694;9.476;2023-07-29T04:10:10;14.80;99.90
50013;DHT22;35901;48.694;9.476;2023-07-29T04:12:36;14.80;99.90
50013;DHT22;35901;48.694;9.476;2023-07-29T04:15:02;14.80;99.90
50013;DHT22;35901;48.694;9.476;2023-07-29T04:17:28;14.80;99.90
50013;DHT22;35901;48.694;9.476;2023-07-29T04:19:54;14.80;99.90
50013;DHT22;35901;48.694;9.476;2023-07-29T04:22:23;14.80;99.90
50013;DHT22;35901;48.694;9.476;2023-07-29T04:24:48;14.80;99.90
50013;DHT22;35901;48.694;9.476;2023-07-29T04:27:14;14.80;99.90
50013;DHT22;35901;48.694;9.476;2023-07-29T04:29:40;14.80;99.90
50013;DHT22;35901;48.694;9.476;2023-07-29T04:32:05;14.90;99.90
50013;DHT22;35901;48.694;9.476;2023-07-29T04:34:31;14.80;99.90
50013;DHT22;35901;48.694;9.476;2023-07-29T04:36:57;14.90;99.90
50013;DHT22;35901;48.694;9.476;2023-07-29T04:39:23;14.90;99.90
50013;DHT22;35901;48.694;9.476;2023-07-29T04:41:49;14.90;99.90
50013;DHT22;35901;48.694;9.476;2023-07-29T04:44:15;14.90;99.90
50013;DHT22;35901;48.694;9.476;2023-07-29T04:46:40;14.90;99.90
50013;DHT22;35901;48.694;9.476;2023-07-29T04:49:06;15.00;99.90
50013;DHT22;35901;48.694;9.476;2023-07-29T04:51:32;15.10;99.90
50013;DHT22;35901;48.694;9.476;2023-07-29T04:53:58;15.10;99.90
50013;DHT22;35901;48.694;9.476;2023-07-29T04:56:24;15.20;99.90
50013;DHT22;35901;48.694;9.476;2023-07-29T04:58:50;15.30;99.90
50013;DHT22;35901;48.694;9.476;2023-07-29T05:01:16;15.30;99.90
50013;DHT22;35901;48.694;9.476;2023-07-29T05:03:42;15.40;99.90
50013;DHT22;35901;48.694;9.476;2023-07-29T05:06:08;15.40;99.90
50013;DHT22;35901;48.694;9.476;2023-07-29T05:08:33;15.40;99.90
50013;DHT22;35901;48.694;9.476;2023-07-29T05:11:00;15.40;99.90
50013;DHT22;35901;48.694;9.476;2023-07-29T05:13:25;15.40;99.90
50013;DHT22;35901;48.694;9.476;2023-07-29T05:15:51;15.30;99.90
50013;DHT22;35901;48.694;9.476;2023-07-29T05:18:17;15.30;99.90
50013;DHT22;35901;48.694;9.476;2023-07-29T05:20:43;15.40;99.90
50013;DHT22;35901;48.694;9.476;2023-07-29T05:23:09;15.40;99.90
50013;DHT22;35901;48.694;9.476;2023-07-29T05:25:34;15.40;99.90
50013;DHT22;35901;48.694;9.476;2023-07-29T05:28:01;15.40;99.90
50013;DHT22;35901;48.694;9.476;2023-07-29T05:30:28;15.40;99.90
50013;DHT22;35901;48.694;9.476;2023-07-29T05:32:59;15.40;99.90
50013;DHT22;35901;48.694;9.476;2023-07-29T05:35:25;15.50;99.90
50013;DHT22;35901;48.694;9.476;2023-07-29T05:37:51;15.50;99.90
50013;DHT22;35901;48.694;9.476;2023-07-29T05:40:17;15.50;99.90
50013;DHT22;35901;48.694;9.476;2023-07-29T05:42:43;15.50;99.90
50013;DHT22;35901;48.694;9.476;2023-07-29T05:45:10;15.50;99.90
50013;DHT22;35901;48.694;9.476;2023-07-29T05:47:37;15.40;99.90
50013;DHT22;35901;48.694;9.476;2023-07-29T05:50:03;15.40;99.90
50013;DHT22;35901;48.694;9.476;2023-07-29T05:52:33;15.40;99.90
50013;DHT22;35901;48.694;9.476;2023-07-29T05:54:59;15.40;99.90
50013;DHT22;35901;48.694;9.476;2023-07-29T05:57:25;15.50;99.90
50013;DHT22;35901;48.694;9.476;2023-07-29T05:59:50;15.60;99.90
50013;DHT22;35901;48.694;9.476;2023-07-29T06:02:16;15.70;99.90
50013;DHT22;35901;48.694;9.476;2023-07-29T06:04:42;15.80;99.90
50013;DHT22;35901;48.694;9.476;2023-07-29T06:07:07;15.90;99.90
50013;DHT22;35901;48.694;9.476;2023-07-29T06:09:34;16.10;99.90
50013;DHT22;35901;48.694;9.476;2023-07-29T06:12:00;16.20;99.90
50013;DHT22;35901;48.694;9.476;2023-07-29T06:14:26;16.40;99.90
50013;DHT22;35901;48.694;9.476;2023-07-29T06:16:52;16.50;99.90
50013;DHT22;35901;48.694;9.476;2023-07-29T06:19:19;16.50;99.90
50013;DHT22;35901;48.694;9.476;2023-07-29T06:21:45;16.60;99.90
50013;DHT22;35901;48.694;9.476;2023-07-29T06:24:11;16.50;99.90
50013;DHT22;35901;48.694;9.476;2023-07-29T06:26:36;16.60;99.90
50013;DHT22;35901;48.694;9.476;2023-07-29T06:29:02;16.80;99.90
50013;DHT22;35901;48.694;9.476;2023-07-29T06:31:28;17.10;99.90
50013;DHT22;35901;48.694;9.476;2023-07-29T06:33:53;17.70;99.90
50013;DHT22;35901;48.694;9.476;2023-07-29T06:36:20;17.90;99.90
50013;DHT22;35901;48.694;9.476;2023-07-29T06:38:45;17.90;99.90
50013;DHT22;35901;48.694;9.476;2023-07-29T06:41:11;17.90;99.90
50013;DHT22;35901;48.694;9.476;2023-07-29T06:43:37;17.90;99.90
50013;DHT22;35901;48.694;9.476;2023-07-29T06:46:03;17.90;99.90
50013;DHT22;35901;48.694;9.476;2023-07-29T06:48:28;18.00;99.90
50013;DHT22;35901;48.694;9.476;2023-07-29T06:50:54;18.30;99.90
50013;DHT22;35901;48.694;9.476;2023-07-29T06:53:20;18.60;99.90
50013;DHT22;35901;48.694;9.476;2023-07-29T06:55:46;18.70;99.90
50013;DHT22;35901;48.694;9.476;2023-07-29T06:58:12;18.50;99.90
50013;DHT22;35901;48.694;9.476;2023-07-29T07:00:38;18.40;99.90
50013;DHT22;35901;48.694;9.476;2023-07-29T07:03:04;18.30;99.90
50013;DHT22;35901;48.694;9.476;2023-07-29T07:05:35;18.20;99.90
50013;DHT22;35901;48.694;9.476;2023-07-29T07:08:01;18.10;99.90
50013;DHT22;35901;48.694;9.476;2023-07-29T07:10:26;18.00;99.90
50013;DHT22;35901;48.694;9.476;2023-07-29T07:12:52;17.80;99.90
50013;DHT22;35901;48.694;9.476;2023-07-29T07:15:18;17.70;99.90
50013;DHT22;35901;48.694;9.476;2023-07-29T07:17:43;17.50;99.90
50013;DHT22;35901;48.694;9.476;2023-07-29T07:20:09;17.40;99.90
50013;DHT22;35901;48.694;9.476;2023-07-29T07:22:35;17.30;99.90
50013;DHT22;35901;48.694;9.476;2023-07-29T07:25:01;17.10;99.90
50013;DHT22;35901;48.694;9.476;2023-07-29T07:27:27;16.90;99.90
50013;DHT22;35901;48.694;9.476;2023-07-29T07:29:52;16.80;99.90
50013;DHT22;35901;48.694;9.476;2023-07-29T07:32:18;16.70;99.90
50013;DHT22;35901;48.694;9.476;2023-07-29T07:34:44;16.70;99.90
50013;DHT22;35901;48.694;9.476;2023-07-29T07:37:09;16.70;99.90
50013;DHT22;35901;48.694;9.476;2023-07-29T07:39:35;16.60;99.90
50013;DHT22;35901;48.694;9.476;2023-07-29T07:42:01;16.50;99.90
50013;DHT22;35901;48.694;9.476;2023-07-29T07:44:26;16.40;99.90
50013;DHT22;35901;48.694;9.476;2023-07-29T07:46:52;16.40;99.90
50013;DHT22;35901;48.694;9.476;2023-07-29T07:49:19;16.40;99.90
50013;DHT22;35901;48.694;9.476;2023-07-29T07:51:45;16.30;99.90
50013;DHT22;35901;48.694;9.476;2023-07-29T07:54:10;16.40;99.90
50013;DHT22;35901;48.694;9.476;2023-07-29T07:56:36;16.60;99.90
50013;DHT22;35901;48.694;9.476;2023-07-29T07:59:02;16.70;99.90
50013;DHT22;35901;48.694;9.476;2023-07-29T08:01:27;16.80;99.90
50013;DHT22;35901;48.694;9.476;2023-07-29T08:03:53;16.90;99.90
50013;DHT22;35901;48.694;9.476;2023-07-29T08:06:18;17.00;99.90
50013;DHT22;35901;48.694;9.476;2023-07-29T08:08:44;17.00;99.90
50013;DHT22;35901;48.694;9.476;2023-07-29T08:11:10;17.10;99.90
50013;DHT22;35901;48.694;9.476;2023-07-29T08:13:37;17.20;99.90
50013;DHT22;35901;48.694;9.476;2023-07-29T08:16:03;17.30;99.90
50013;DHT22;35901;48.694;9.476;2023-07-29T08:18:28;17.40;99.90
50013;DHT22;35901;48.694;9.476;2023-07-29T08:20:58;17.50;99.90
50013;DHT22;35901;48.694;9.476;2023-07-29T08:23:25;17.60;99.90
50013;DHT22;35901;48.694;9.476;2023-07-29T08:25:55;17.90;99.90
50013;DHT22;35901;48.694;9.476;2023-07-29T08:28:22;18.20;99.90
50013;DHT22;35901;48.694;9.476;2023-07-29T08:30:48;18.40;99.90
50013;DHT22;35901;48.694;9.476;2023-07-29T08:33:15;18.50;99.90
50013;DHT22;35901;48.694;9.476;2023-07-29T08:35:40;18.70;99.90
50013;DHT22;35901;48.694;9.476;2023-07-29T08:38:06;18.90;99.90
50013;DHT22;35901;48.694;9.476;2023-07-29T08:40:34;19.20;99.90
50013;DHT22;35901;48.694;9.476;2023-07-29T08:43:04;19.40;99.90
50013;DHT22;35901;48.694;9.476;2023-07-29T08:45:34;19.60;99.90
50013;DHT22;35901;48.694;9.476;2023-07-29T08:48:03;19.70;99.90
50013;DHT22;35901;48.694;9.476;2023-07-29T08:50:33;19.70;99.90
50013;DHT22;35901;48.694;9.476;2023-07-29T08:53:04;19.70;99.90
50013;DHT22;35901;48.694;9.476;2023-07-29T08:55:30;19.70;99.90
50013;DHT22;35901;48.694;9.476;2023-07-29T08:57:56;19.80;99.90
50013;DHT22;35901;48.694;9.476;2023-07-29T09:00:23;20.00;99.90
50013;DHT22;35901;48.694;9.476;2023-07-29T09:02:48;20.20;99.90
50013;DHT22;35901;48.694;9.476;2023-07-29T09:05:14;20.50;99.90
50013;DHT22;35901;48.694;9.476;2023-07-29T09:07:40;20.90;99.90
50013;DHT22;35901;48.694;9.476;2023-07-29T09:10:09;20.90;99.90
50013;DHT22;35901;48.694;9.476;2023-07-29T09:12:36;21.00;99.90
50013;DHT22;35901;48.694;9.476;2023-07-29T09:15:02;21.00;99.90
50013;DHT22;35901;48.694;9.476;2023-07-29T09:17:33;21.10;99.90
50013;DHT22;35901;48.694;9.476;2023-07-29T09:19:58;21.20;99.90
50013;DHT22;35901;48.694;9.476;2023-07-29T09:22:24;21.30;99.90
50013;DHT22;35901;48.694;9.476;2023-07-29T09:24:52;21.40;99.90
50013;DHT22;35901;48.694;9.476;2023-07-29T09:27:25;21.60;99.90
50013;DHT22;35901;48.694;9.476;2023-07-29T09:29:52;21.80;99.90
50013;DHT22;35901;48.694;9.476;2023-07-29T09:32:19;22.00;99.90
50013;DHT22;35901;48.694;9.476;2023-07-29T09:34:46;22.30;99.90
50013;DHT22;35901;48.694;9.476;2023-07-29T09:37:21;22.70;99.90
50013;DHT22;35901;48.694;9.476;2023-07-29T09:39:48;23.20;99.90
50013;DHT22;35901;48.694;9.476;2023-07-29T09:42:22;23.30;99.90
50013;DHT22;35901;48.694;9.476;2023-07-29T09:44:49;23.30;99.90
50013;DHT22;35901;48.694;9.476;2023-07-29T09:47:23;23.50;99.90
50013;DHT22;35901;48.694;9.476;2023-07-29T09:49:49;23.90;99.90
50013;DHT22;35901;48.694;9.476;2023-07-29T09:52:19;24.00;99.90
50013;DHT22;35901;48.694;9.476;2023-07-29T09:54:46;24.00;99.90
50013;DHT22;35901;48.694;9.476;2023-07-29T09:57:17;24.50;99.90
50013;DHT22;35901;48.694;9.476;2023-07-29T09:59:53;24.70;99.90
50013;DHT22;35901;48.694;9.476;2023-07-29T10:02:19;24.70;99.90
50013;DHT22;35901;48.694;9.476;2023-07-29T10:04:46;24.60;99.90
50013;DHT22;35901;48.694;9.476;2023-07-29T10:07:12;24.80;99.90
50013;DHT22;35901;48.694;9.476;2023-07-29T10:09:39;25.10;99.90
50013;DHT22;35901;48.694;9.476;2023-07-29T10:12:06;25.10;99.90
50013;DHT22;35901;48.694;9.476;2023-07-29T10:14:33;25.10;99.90
50013;DHT22;35901;48.694;9.476;2023-07-29T10:17:00;25.10;99.90
50013;DHT22;35901;48.694;9.476;2023-07-29T10:19:26;25.10;99.90
50013;DHT22;35901;48.694;9.476;2023-07-29T10:21:55;25.00;99.90
50013;DHT22;35901;48.694;9.476;2023-07-29T10:24:24;25.20;99.90
50013;DHT22;35901;48.694;9.476;2023-07-29T10:26:57;25.30;99.90
50013;DHT22;35901;48.694;9.476;2023-07-29T10:29:24;25.40;99.90
50013;DHT22;35901;48.694;9.476;2023-07-29T10:31:53;25.70;99.90
50013;DHT22;35901;48.694;9.476;2023-07-29T10:34:21;26.00;99.90
50013;DHT22;35901;48.694;9.476;2023-07-29T10:36:47;26.10;99.90
50013;DHT22;35901;48.694;9.476;2023-07-29T10:39:13;26.10;99.90
50013;DHT22;35901;48.694;9.476;2023-07-29T10:41:58;26.00;99.90
50013;DHT22;35901;48.694;9.476;2023-07-29T10:47:27;26.40;99.90
50013;DHT22;35901;48.694;9.476;2023-07-29T10:49:56;26.40;99.90
50013;DHT22;35901;48.694;9.476;2023-07-29T10:52:40;26.10;99.90
50013;DHT22;35901;48.694;9.476;2023-07-29T10:55:34;25.70;99.90
50013;DHT22;35901;48.694;9.476;2023-07-29T10:58:19;25.10;99.90
50013;DHT22;35901;48.694;9.476;2023-07-29T11:00:45;24.80;99.90
50013;DHT22;35901;48.694;9.476;2023-07-29T11:03:13;24.70;99.90
50013;DHT22;35901;48.694;9.476;2023-07-29T11:05:49;24.90;99.90
50013;DHT22;35901;48.694;9.476;2023-07-29T11:08:29;25.10;99.90
50013;DHT22;35901;48.694;9.476;2023-07-29T11:11:08;25.40;99.90
50013;DHT22;35901;48.694;9.476;2023-07-29T11:13:37;26.10;99.90
50013;DHT22;35901;48.694;9.476;2023-07-29T11:16:04;26.60;99.90
50013;DHT22;35901;48.694;9.476;2023-07-29T11:18:32;26.80;99.90
50013;DHT22;35901;48.694;9.476;2023-07-29T11:21:00;26.70;99.90
50013;DHT22;35901;48.694;9.476;2023-07-29T11:23:31;26.90;99.90
50013;DHT22;35901;48.694;9.476;2023-07-29T11:25:57;26.70;99.90
50013;DHT22;35901;48.694;9.476;2023-07-29T11:28:24;26.70;99.90
50013;DHT22;35901;48.694;9.476;2023-07-29T11:30:50;26.60;99.90
50013;DHT22;35901;48.694;9.476;2023-07-29T11:33:24;26.50;99.90
50013;DHT22;35901;48.694;9.476;2023-07-29T11:35:50;26.30;99.90
50013;DHT22;35901;48.694;9.476;2023-07-29T11:38:17;26.20;99.90
50013;DHT22;35901;48.694;9.476;2023-07-29T11:40:54;26.00;99.90
50013;DHT22;35901;48.694;9.476;2023-07-29T11:43:19;25.90;99.90
50013;DHT22;35901;48.694;9.476;2023-07-29T11:45:45;25.70;99.90
50013;DHT22;35901;48.694;9.476;2023-07-29T11:48:11;25.50;99.90
50013;DHT22;35901;48.694;9.476;2023-07-29T11:50:37;25.40;99.90
50013;DHT22;35901;48.694;9.476;2023-07-29T11:53:03;25.60;99.90
50013;DHT22;35901;48.694;9.476;2023-07-29T11:55:29;26.00;99.90
50013;DHT22;35901;48.694;9.476;2023-07-29T11:57:55;26.20;99.90
50013;DHT22;35901;48.694;9.476;2023-07-29T12:00:21;26.30;99.90
50013;DHT22;35901;48.694;9.476;2023-07-29T12:02:48;26.40;99.90
50013;DHT22;35901;48.694;9.476;2023-07-29T12:05:15;26.40;99.90
50013;DHT22;35901;48.694;9.476;2023-07-29T12:07:42;26.40;99.90
50013;DHT22;35901;48.694;9.476;2023-07-29T12:10:10;26.30;99.90
50013;DHT22;35901;48.694;9.476;2023-07-29T12:12:48;26.40;99.90
50013;DHT22;35901;48.694;9.476;2023-07-29T12:15:21;26.70;99.90
50013;DHT22;35901;48.694;9.476;2023-07-29T12:17:53;26.70;99.90
50013;DHT22;35901;48.694;9.476;2023-07-29T12:20:20;26.70;99.90
50013;DHT22;35901;48.694;9.476;2023-07-29T12:22:58;26.70;99.90
50013;DHT22;35901;48.694;9.476;2023-07-29T12:25:25;26.40;99.90
50013;DHT22;35901;48.694;9.476;2023-07-29T12:27:51;26.10;99.90
50013;DHT22;35901;48.694;9.476;2023-07-29T12:30:20;26.20;99.90
50013;DHT22;35901;48.694;9.476;2023-07-29T12:32:46;26.30;99.90
50013;DHT22;35901;48.694;9.476;2023-07-29T12:35:13;26.30;99.90
50013;DHT22;35901;48.694;9.476;2023-07-29T12:37:39;26.40;99.40
50013;DHT22;35901;48.694;9.476;2023-07-29T12:40:41;26.40;99.90
50013;DHT22;35901;48.694;9.476;2023-07-29T12:43:00;26.40;99.60
50013;DHT22;35901;48.694;9.476;2023-07-29T12:45:26;26.30;98.90
50013;DHT22;35901;48.694;9.476;2023-07-29T12:47:52;26.60;99.50
50013;DHT22;35901;48.694;9.476;2023-07-29T12:50:18;27.10;98.80
50013;DHT22;35901;48.694;9.476;2023-07-29T12:52:43;27.30;97.90
50013;DHT22;35901;48.694;9.476;2023-07-29T12:55:09;27.50;96.70
50013;DHT22;35901;48.694;9.476;2023-07-29T12:57:39;27.60;95.70
50013;DHT22;35901;48.694;9.476;2023-07-29T13:00:06;27.50;95.40
50013;DHT22;35901;48.694;9.476;2023-07-29T13:02:31;27.50;94.10
50013;DHT22;35901;48.694;9.476;2023-07-29T13:04:57;27.20;94.00
50013;DHT22;35901;48.694;9.476;2023-07-29T13:07:23;27.00;93.80
50013;DHT22;35901;48.694;9.476;2023-07-29T13:09:48;26.80;94.60
50013;DHT22;35901;48.694;9.476;2023-07-29T13:12:14;26.70;94.50
50013;DHT22;35901;48.694;9.476;2023-07-29T13:14:39;26.70;94.60
50013;DHT22;35901;48.694;9.476;2023-07-29T13:17:05;26.50;94.60
50013;DHT22;35901;48.694;9.476;2023-07-29T13:19:31;26.50;94.10
50013;DHT22;35901;48.694;9.476;2023-07-29T13:21:56;26.40;94.10
50013;DHT22;35901;48.694;9.476;2023-07-29T13:24:22;26.40;94.50
50013;DHT22;35901;48.694;9.476;2023-07-29T13:26:48;26.50;94.00
50013;DHT22;35901;48.694;9.476;2023-07-29T13:29:13;26.70;94.10
50013;DHT22;35901;48.694;9.476;2023-07-29T13:31:39;26.80;93.80
50013;DHT22;35901;48.694;9.476;2023-07-29T13:34:04;27.00;93.50
50013;DHT22;35901;48.694;9.476;2023-07-29T13:36:30;26.90;93.70
50013;DHT22;35901;48.694;9.476;2023-07-29T13:38:56;27.00;93.70
50013;DHT22;35901;48.694;9.476;2023-07-29T13:41:21;26.80;93.50
50013;DHT22;35901;48.694;9.476;2023-07-29T13:43:47;26.80;93.60
50013;DHT22;35901;48.694;9.476;2023-07-29T13:46:13;26.70;93.10
50013;DHT22;35901;48.694;9.476;2023-07-29T13:48:38;26.60;93.10
50013;DHT22;35901;48.694;9.476;2023-07-29T13:51:04;26.60;93.40
50013;DHT22;35901;48.694;9.476;2023-07-29T13:53:29;26.90;93.30
50013;DHT22;35901;48.694;9.476;2023-07-29T13:55:55;27.00;92.90
50013;DHT22;35901;48.694;9.476;2023-07-29T13:58:21;27.00;92.80
50013;DHT22;35901;48.694;9.476;2023-07-29T14:00:46;27.00;92.20
50013;DHT22;35901;48.694;9.476;2023-07-29T14:03:12;27.00;92.20
50013;DHT22;35901;48.694;9.476;2023-07-29T14:05:38;27.10;92.10
50013;DHT22;35901;48.694;9.476;2023-07-29T14:08:03;27.00;92.10
50013;DHT22;35901;48.694;9.476;2023-07-29T14:10:29;26.90;92.40
50013;DHT22;35901;48.694;9.476;2023-07-29T14:12:55;26.70;92.50
50013;DHT22;35901;48.694;9.476;2023-07-29T14:15:21;26.70;92.40
50013;DHT22;35901;48.694;9.476;2023-07-29T14:17:47;26.60;92.00
50013;DHT22;35901;48.694;9.476;2023-07-29T14:20:13;26.80;92.20
50013;DHT22;35901;48.694;9.476;2023-07-29T14:22:39;26.80;92.30
50013;DHT22;35901;48.694;9.476;2023-07-29T14:25:05;26.80;92.30
50013;DHT22;35901;48.694;9.476;2023-07-29T14:27:31;26.70;91.90
50013;DHT22;35901;48.694;9.476;2023-07-29T14:29:57;26.50;91.20
50013;DHT22;35901;48.694;9.476;2023-07-29T14:32:22;26.50;91.60
50013;DHT22;35901;48.694;9.476;2023-07-29T14:34:49;26.50;91.90
50013;DHT22;35901;48.694;9.476;2023-07-29T14:37:15;26.50;90.70
50013;DHT22;35901;48.694;9.476;2023-07-29T14:39:41;26.30;90.60
50013;DHT22;35901;48.694;9.476;2023-07-29T14:42:06;26.20;90.60
50013;DHT22;35901;48.694;9.476;2023-07-29T14:44:33;26.40;90.70
50013;DHT22;35901;48.694;9.476;2023-07-29T14:46:59;26.50;90.30
50013;DHT22;35901;48.694;9.476;2023-07-29T14:49:24;26.60;90.10
50013;DHT22;35901;48.694;9.476;2023-07-29T14:51:50;26.70;90.00
50013;DHT22;35901;48.694;9.476;2023-07-29T14:54:16;26.70;90.10
50013;DHT22;35901;48.694;9.476;2023-07-29T14:56:41;26.50;89.70
50013;DHT22;35901;48.694;9.476;2023-07-29T14:59:07;26.30;90.20
50013;DHT22;35901;48.694;9.476;2023-07-29T15:01:33;26.10;90.80
50013;DHT22;35901;48.694;9.476;2023-07-29T15:03:59;26.00;91.00
50013;DHT22;35901;48.694;9.476;2023-07-29T15:06:24;26.00;91.50
50013;DHT22;35901;48.694;9.476;2023-07-29T15:08:50;26.20;91.10
50013;DHT22;35901;48.694;9.476;2023-07-29T15:11:16;26.20;91.40
50013;DHT22;35901;48.694;9.476;2023-07-29T15:13:42;26.20;91.20
50013;DHT22;35901;48.694;9.476;2023-07-29T15:16:07;26.20;91.50
50013;DHT22;35901;48.694;9.476;2023-07-29T15:18:33;26.10;91.60
50013;DHT22;35901;48.694;9.476;2023-07-29T15:21:00;26.00;91.30
50013;DHT22;35901;48.694;9.476;2023-07-29T15:23:28;25.90;91.40
50013;DHT22;35901;48.694;9.476;2023-07-29T15:25:53;25.80;91.70
50013;DHT22;35901;48.694;9.476;2023-07-29T15:28:19;25.80;91.70
50013;DHT22;35901;48.694;9.476;2023-07-29T15:30:45;25.80;91.80
50013;DHT22;35901;48.694;9.476;2023-07-29T15:33:10;25.70;92.30
50013;DHT22;35901;48.694;9.476;2023-07-29T15:35:38;25.70;92.50